Terminal Aerodrome Forecast
Issued by NWS

Home | Current Version | Previous Version | Text Only | Print | Product List | Glossary On
Versions: 1 2 3 4 5 6 7 8 9 10 11 12 13 14 15 16 17 18 19 20 21 22 23 24 25 26 27 28 29 30
000
FTUS42 KGSP 011747
TAFHKY
TAF
KHKY 011747Z 0118/0218 27007KT P6SM SCT040
     FM012100 22008KT P6SM VCTS BKN050CB
     FM020100 27006KT P6SM VCTS OVC030CB
      TEMPO 0201/0204 4SM TSRA OVC020CB
     FM020500 00000KT P6SM OVC045
     FM021500 22006KT P6SM BKN024 PROB30 0215/0217 4SM TSRA
      BKN014CB=

USA.gov is the U.S. government's official web portal to all federal, state and local government web resources and services.